sensor_id;sensor_type;location;lat;lon;timestamp;pressure;altitude;pressure_sealevel;temperature;humidity
59757;BME280;45631;51.962;5.974;2023-05-16T00:01:42;101702.88;;;9.49;100.00
59757;BME280;45631;51.962;5.974;2023-05-16T00:04:10;101703.78;;;9.48;100.00
59757;BME280;45631;51.962;5.974;2023-05-16T00:06:38;101705.34;;;9.33;100.00
59757;BME280;45631;51.962;5.974;2023-05-16T00:09:06;101706.25;;;9.32;100.00
59757;BME280;45631;51.962;5.974;2023-05-16T00:11:34;101708.31;;;9.25;100.00
59757;BME280;45631;51.962;5.974;2023-05-16T00:14:03;101706.56;;;9.26;100.00
59757;BME280;45631;51.962;5.974;2023-05-16T00:16:32;101708.06;;;9.32;100.00
59757;BME280;45631;51.962;5.974;2023-05-16T00:19:02;101707.00;;;9.36;100.00
59757;BME280;45631;51.962;5.974;2023-05-16T00:21:31;101710.31;;;9.39;100.00
59757;BME280;45631;51.962;5.974;2023-05-16T00:23:59;101705.00;;;9.41;100.00
59757;BME280;45631;51.962;5.974;2023-05-16T00:26:27;101708.69;;;9.37;100.00
59757;BME280;45631;51.962;5.974;2023-05-16T00:28:55;101712.44;;;9.31;100.00
59757;BME280;45631;51.962;5.974;2023-05-16T00:31:23;101715.06;;;9.31;100.00
59757;BME280;45631;51.962;5.974;2023-05-16T00:33:53;101711.09;;;9.41;100.00
59757;BME280;45631;51.962;5.974;2023-05-16T00:36:22;101707.69;;;9.39;100.00
59757;BME280;45631;51.962;5.974;2023-05-16T00:38:50;101715.50;;;9.41;100.00
59757;BME280;45631;51.962;5.974;2023-05-16T00:41:18;101721.66;;;9.21;100.00
59757;BME280;45631;51.962;5.974;2023-05-16T00:43:47;101722.72;;;9.17;100.00
59757;BME280;45631;51.962;5.974;2023-05-16T00:46:15;101723.78;;;9.12;100.00
59757;BME280;45631;51.962;5.974;2023-05-16T00:48:44;101719.75;;;9.24;100.00
59757;BME280;45631;51.962;5.974;2023-05-16T00:51:13;101729.03;;;9.12;100.00
59757;BME280;45631;51.962;5.974;2023-05-16T00:53:42;101723.34;;;9.03;100.00
59757;BME280;45631;51.962;5.974;2023-05-16T00:56:13;101728.84;;;8.96;100.00
59757;BME280;45631;51.962;5.974;2023-05-16T00:58:41;101718.38;;;8.96;100.00
59757;BME280;45631;51.962;5.974;2023-05-16T01:01:09;101722.38;;;9.05;100.00
59757;BME280;45631;51.962;5.974;2023-05-16T01:03:38;101725.31;;;8.98;100.00
59757;BME280;45631;51.962;5.974;2023-05-16T01:06:06;101724.22;;;8.83;100.00
59757;BME280;45631;51.962;5.974;2023-05-16T01:08:36;101728.97;;;8.74;100.00
59757;BME280;45631;51.962;5.974;2023-05-16T01:11:13;101731.97;;;8.65;100.00
59757;BME280;45631;51.962;5.974;2023-05-16T01:13:50;101733.84;;;8.61;100.00
59757;BME280;45631;51.962;5.974;2023-05-16T01:16:26;101737.53;;;8.57;100.00
59757;BME280;45631;51.962;5.974;2023-05-16T01:19:06;101736.94;;;8.51;100.00
59757;BME280;45631;51.962;5.974;2023-05-16T01:21:41;101733.25;;;8.55;100.00
59757;BME280;45631;51.962;5.974;2023-05-16T01:24:21;101736.81;;;8.54;100.00
59757;BME280;45631;51.962;5.974;2023-05-16T01:26:51;101736.63;;;8.58;100.00
59757;BME280;45631;51.962;5.974;2023-05-16T01:29:19;101738.47;;;8.56;100.00
59757;BME280;45631;51.962;5.974;2023-05-16T01:31:48;101733.81;;;8.41;100.00
59757;BME280;45631;51.962;5.974;2023-05-16T01:34:16;101738.28;;;8.39;100.00
59757;BME280;45631;51.962;5.974;2023-05-16T01:36:49;101730.28;;;8.42;100.00
59757;BME280;45631;51.962;5.974;2023-05-16T01:39:23;101734.19;;;8.32;100.00
59757;BME280;45631;51.962;5.974;2023-05-16T01:42:00;101736.94;;;8.28;100.00
59757;BME280;45631;51.962;5.974;2023-05-16T01:44:32;101730.88;;;8.28;100.00
59757;BME280;45631;51.962;5.974;2023-05-16T01:47:06;101732.69;;;8.26;100.00
59757;BME280;45631;51.962;5.974;2023-05-16T01:49:42;101734.78;;;8.18;100.00
59757;BME280;45631;51.962;5.974;2023-05-16T01:52:15;101734.16;;;8.11;100.00
59757;BME280;45631;51.962;5.974;2023-05-16T01:54:47;101734.97;;;8.13;100.00
59757;BME280;45631;51.962;5.974;2023-05-16T01:57:17;101729.97;;;8.07;100.00
59757;BME280;45631;51.962;5.974;2023-05-16T01:59:48;101730.91;;;8.06;100.00
59757;BME280;45631;51.962;5.974;2023-05-16T02:02:17;101730.91;;;8.06;100.00
59757;BME280;45631;51.962;5.974;2023-05-16T02:04:45;101735.34;;;8.04;100.00
59757;BME280;45631;51.962;5.974;2023-05-16T02:07:14;101728.44;;;8.01;100.00
59757;BME280;45631;51.962;5.974;2023-05-16T02:09:42;101739.06;;;7.98;100.00
59757;BME280;45631;51.962;5.974;2023-05-16T02:12:10;101732.41;;;7.89;100.00
59757;BME280;45631;51.962;5.974;2023-05-16T02:14:39;101735.09;;;7.88;100.00
59757;BME280;45631;51.962;5.974;2023-05-16T02:17:07;101728.78;;;7.93;100.00
59757;BME280;45631;51.962;5.974;2023-05-16T02:19:36;101735.00;;;7.91;100.00
59757;BME280;45631;51.962;5.974;2023-05-16T02:22:04;101743.25;;;7.80;100.00
59757;BME280;45631;51.962;5.974;2023-05-16T02:24:32;101737.00;;;7.84;100.00
59757;BME280;45631;51.962;5.974;2023-05-16T02:27:01;101749.13;;;7.87;100.00
59757;BME280;45631;51.962;5.974;2023-05-16T02:29:29;101751.19;;;7.78;100.00
59757;BME280;45631;51.962;5.974;2023-05-16T02:31:59;101746.84;;;7.77;100.00
59757;BME280;45631;51.962;5.974;2023-05-16T02:34:27;101746.03;;;7.75;100.00
59757;BME280;45631;51.962;5.974;2023-05-16T02:36:55;101753.13;;;7.73;100.00
59757;BME280;45631;51.962;5.974;2023-05-16T02:39:23;101761.09;;;7.70;100.00
59757;BME280;45631;51.962;5.974;2023-05-16T02:41:51;101756.72;;;7.71;100.00
59757;BME280;45631;51.962;5.974;2023-05-16T02:44:20;101762.78;;;7.71;100.00
59757;BME280;45631;51.962;5.974;2023-05-16T02:46:48;101766.38;;;7.69;100.00
59757;BME280;45631;51.962;5.974;2023-05-16T02:49:18;101763.19;;;7.60;100.00
59757;BME280;45631;51.962;5.974;2023-05-16T02:51:46;101771.00;;;7.62;100.00
59757;BME280;45631;51.962;5.974;2023-05-16T02:54:15;101764.00;;;7.63;100.00
59757;BME280;45631;51.962;5.974;2023-05-16T02:56:43;101771.72;;;7.66;100.00
59757;BME280;45631;51.962;5.974;2023-05-16T02:59:12;101771.91;;;7.61;100.00
59757;BME280;45631;51.962;5.974;2023-05-16T03:01:40;101774.69;;;7.56;100.00
59757;BME280;45631;51.962;5.974;2023-05-16T03:04:08;101776.81;;;7.47;100.00
59757;BME280;45631;51.962;5.974;2023-05-16T03:06:38;101776.81;;;7.47;100.00
59757;BME280;45631;51.962;5.974;2023-05-16T03:09:08;101778.84;;;7.38;100.00
59757;BME280;45631;51.962;5.974;2023-05-16T03:11:37;101781.66;;;7.34;100.00
59757;BME280;45631;51.962;5.974;2023-05-16T03:14:05;101778.09;;;7.35;100.00
59757;BME280;45631;51.962;5.974;2023-05-16T03:16:34;101782.03;;;7.23;100.00
59757;BME280;45631;51.962;5.974;2023-05-16T03:19:04;101791.13;;;7.13;100.00
59757;BME280;45631;51.962;5.974;2023-05-16T03:21:33;101785.81;;;7.14;100.00
59757;BME280;45631;51.962;5.974;2023-05-16T03:24:03;101786.78;;;7.11;100.00
59757;BME280;45631;51.962;5.974;2023-05-16T03:26:31;101791.94;;;7.15;100.00
59757;BME280;45631;51.962;5.974;2023-05-16T03:28:59;101795.28;;;7.18;100.00
59757;BME280;45631;51.962;5.974;2023-05-16T03:31:32;101790.38;;;7.09;100.00
59757;BME280;45631;51.962;5.974;2023-05-16T03:34:00;101790.41;;;7.07;100.00
59757;BME280;45631;51.962;5.974;2023-05-16T03:36:28;101796.59;;;7.06;100.00
59757;BME280;45631;51.962;5.974;2023-05-16T03:38:57;101801.75;;;7.08;100.00
59757;BME280;45631;51.962;5.974;2023-05-16T03:41:26;101808.00;;;7.04;100.00
59757;BME280;45631;51.962;5.974;2023-05-16T03:43:55;101813.44;;;6.98;100.00
59757;BME280;45631;51.962;5.974;2023-05-16T03:46:23;101808.09;;;7.01;100.00
59757;BME280;45631;51.962;5.974;2023-05-16T03:48:51;101813.31;;;7.01;100.00
59757;BME280;45631;51.962;5.974;2023-05-16T03:51:19;101807.03;;;7.06;100.00
59757;BME280;45631;51.962;5.974;2023-05-16T03:53:48;101815.94;;;7.01;100.00
59757;BME280;45631;51.962;5.974;2023-05-16T03:56:16;101822.09;;;7.00;100.00
59757;BME280;45631;51.962;5.974;2023-05-16T03:58:45;101814.78;;;7.09;100.00
59757;BME280;45631;51.962;5.974;2023-05-16T04:01:13;101814.72;;;7.11;100.00
59757;BME280;45631;51.962;5.974;2023-05-16T04:03:42;101821.66;;;7.12;100.00
59757;BME280;45631;51.962;5.974;2023-05-16T04:06:10;101825.94;;;7.15;100.00
59757;BME280;45631;51.962;5.974;2023-05-16T04:08:38;101825.06;;;7.14;100.00
59757;BME280;45631;51.962;5.974;2023-05-16T04:11:06;101824.16;;;7.15;100.00
59757;BME280;45631;51.962;5.974;2023-05-16T04:13:35;101825.06;;;7.14;100.00
59757;BME280;45631;51.962;5.974;2023-05-16T04:16:05;101823.28;;;7.16;100.00
59757;BME280;45631;51.962;5.974;2023-05-16T04:18:33;101830.09;;;7.20;100.00
59757;BME280;45631;51.962;5.974;2023-05-16T04:21:02;101830.81;;;7.24;100.00
59757;BME280;45631;51.962;5.974;2023-05-16T04:23:30;101826.41;;;7.26;100.00
59757;BME280;45631;51.962;5.974;2023-05-16T04:25:58;101832.41;;;7.30;100.00
59757;BME280;45631;51.962;5.974;2023-05-16T04:28:27;101834.91;;;7.33;100.00
59757;BME280;45631;51.962;5.974;2023-05-16T04:30:56;101840.81;;;7.38;100.00
59757;BME280;45631;51.962;5.974;2023-05-16T04:33:25;101836.25;;;7.43;100.00
59757;BME280;45631;51.962;5.974;2023-05-16T04:35:53;101834.34;;;7.48;100.00
59757;BME280;45631;51.962;5.974;2023-05-16T04:38:23;101832.53;;;7.50;100.00
59757;BME280;45631;51.962;5.974;2023-05-16T04:40:54;101843.69;;;7.55;100.00
59757;BME280;45631;51.962;5.974;2023-05-16T04:43:23;101840.00;;;7.61;100.00
59757;BME280;45631;51.962;5.974;2023-05-16T04:45:51;101843.50;;;7.60;100.00
59757;BME280;45631;51.962;5.974;2023-05-16T04:48:19;101859.41;;;7.55;100.00
59757;BME280;45631;51.962;5.974;2023-05-16T04:50:49;101855.75;;;7.59;100.00
59757;BME280;45631;51.962;5.974;2023-05-16T04:53:18;101853.16;;;7.59;100.00
59757;BME280;45631;51.962;5.974;2023-05-16T04:55:46;101858.13;;;7.66;100.00
59757;BME280;45631;51.962;5.974;2023-05-16T04:58:14;101856.34;;;7.68;100.00
59757;BME280;45631;51.962;5.974;2023-05-16T05:00:42;101861.44;;;7.71;100.00
59757;BME280;45631;51.962;5.974;2023-05-16T05:03:10;101868.28;;;7.75;100.00
59757;BME280;45631;51.962;5.974;2023-05-16T05:05:38;101861.97;;;7.81;100.00
59757;BME280;45631;51.962;5.974;2023-05-16T05:08:08;101868.22;;;7.76;100.00
59757;BME280;45631;51.962;5.974;2023-05-16T05:10:36;101872.56;;;7.77;100.00
59757;BME280;45631;51.962;5.974;2023-05-16T05:13:04;101871.34;;;7.86;100.00
59757;BME280;45631;51.962;5.974;2023-05-16T05:15:33;101879.72;;;7.96;100.00
59757;BME280;45631;51.962;5.974;2023-05-16T05:18:01;101881.38;;;7.99;100.00
59757;BME280;45631;51.962;5.974;2023-05-16T05:20:30;101880.47;;;8.00;100.00
59757;BME280;45631;51.962;5.974;2023-05-16T05:22:58;101879.31;;;8.07;100.00
59757;BME280;45631;51.962;5.974;2023-05-16T05:25:28;101885.00;;;8.18;100.00
59757;BME280;45631;51.962;5.974;2023-05-16T05:27:56;101878.59;;;8.25;100.00
59757;BME280;45631;51.962;5.974;2023-05-16T05:30:24;101878.25;;;8.35;100.00
59757;BME280;45631;51.962;5.974;2023-05-16T05:32:52;101888.75;;;8.35;100.00
59757;BME280;45631;51.962;5.974;2023-05-16T05:35:20;101887.78;;;8.37;100.00
59757;BME280;45631;51.962;5.974;2023-05-16T05:37:48;101887.78;;;8.37;100.00
59757;BME280;45631;51.962;5.974;2023-05-16T05:40:17;101889.41;;;8.40;100.00
59757;BME280;45631;51.962;5.974;2023-05-16T05:42:46;101886.44;;;8.49;100.00
59757;BME280;45631;51.962;5.974;2023-05-16T05:45:14;101892.97;;;8.61;100.00
59757;BME280;45631;51.962;5.974;2023-05-16T05:47:43;101896.94;;;8.71;100.00
59757;BME280;45631;51.962;5.974;2023-05-16T05:50:12;101900.09;;;8.79;100.00
59757;BME280;45631;51.962;5.974;2023-05-16T05:52:40;101901.69;;;8.84;100.00
59757;BME280;45631;51.962;5.974;2023-05-16T05:55:08;101902.47;;;8.86;100.00
59757;BME280;45631;51.962;5.974;2023-05-16T05:57:39;101906.06;;;8.83;100.00
59757;BME280;45631;51.962;5.974;2023-05-16T06:00:10;101905.75;;;8.91;100.00
59757;BME280;45631;51.962;5.974;2023-05-16T06:02:38;101910.94;;;8.92;100.00
59757;BME280;45631;51.962;5.974;2023-05-16T06:05:08;101914.38;;;8.94;100.00
59757;BME280;45631;51.962;5.974;2023-05-16T06:07:36;101915.13;;;8.96;100.00
59757;BME280;45631;51.962;5.974;2023-05-16T06:10:05;101915.28;;;8.93;100.00
59757;BME280;45631;51.962;5.974;2023-05-16T06:12:34;101922.09;;;8.98;100.00
59757;BME280;45631;51.962;5.974;2023-05-16T06:15:02;101918.06;;;8.89;100.00
59757;BME280;45631;51.962;5.974;2023-05-16T06:17:32;101922.25;;;8.94;100.00
59757;BME280;45631;51.962;5.974;2023-05-16T06:20:00;101925.78;;;8.93;100.00
59757;BME280;45631;51.962;5.974;2023-05-16T06:22:29;101925.69;;;8.95;100.00
59757;BME280;45631;51.962;5.974;2023-05-16T06:24:57;101927.22;;;9.01;100.00
59757;BME280;45631;51.962;5.974;2023-05-16T06:27:26;101928.50;;;9.12;100.00
59757;BME280;45631;51.962;5.974;2023-05-16T06:29:54;101926.47;;;9.19;100.00
59757;BME280;45631;51.962;5.974;2023-05-16T06:32:22;101931.56;;;9.22;100.00
59757;BME280;45631;51.962;5.974;2023-05-16T06:34:52;101933.09;;;9.28;100.00
59757;BME280;45631;51.962;5.974;2023-05-16T06:37:20;101934.47;;;9.37;100.00
59757;BME280;45631;51.962;5.974;2023-05-16T06:39:49;101935.13;;;9.42;100.00
59757;BME280;45631;51.962;5.974;2023-05-16T06:42:17;101932.50;;;9.42;100.00
59757;BME280;45631;51.962;5.974;2023-05-16T06:44:46;101933.88;;;9.51;100.00
59757;BME280;45631;51.962;5.974;2023-05-16T06:47:14;101937.09;;;9.57;100.00
59757;BME280;45631;51.962;5.974;2023-05-16T06:49:42;101938.66;;;9.61;100.00
59757;BME280;45631;51.962;5.974;2023-05-16T06:52:12;101941.38;;;9.60;100.00
59757;BME280;45631;51.962;5.974;2023-05-16T06:54:40;101941.88;;;9.68;100.00
59757;BME280;45631;51.962;5.974;2023-05-16T06:57:08;101936.19;;;9.77;100.00
59757;BME280;45631;51.962;5.974;2023-05-16T06:59:36;101940.06;;;9.89;100.00
59757;BME280;45631;51.962;5.974;2023-05-16T07:02:05;101938.09;;;9.94;100.00
59757;BME280;45631;51.962;5.974;2023-05-16T07:04:34;101949.03;;;10.04;100.00
59757;BME280;45631;51.962;5.974;2023-05-16T07:07:04;101937.88;;;10.18;100.00
59757;BME280;45631;51.962;5.974;2023-05-16T07:09:34;101933.56;;;10.17;100.00
59757;BME280;45631;51.962;5.974;2023-05-16T07:12:03;101934.00;;;10.27;100.00
59757;BME280;45631;51.962;5.974;2023-05-16T07:14:35;101938.31;;;10.47;100.00
59757;BME280;45631;51.962;5.974;2023-05-16T07:17:03;101946.28;;;10.64;100.00
59757;BME280;45631;51.962;5.974;2023-05-16T07:19:32;101938.59;;;10.79;100.00
59757;BME280;45631;51.962;5.974;2023-05-16T07:22:00;101936.09;;;10.93;100.00
59757;BME280;45631;51.962;5.974;2023-05-16T07:24:28;101936.00;;;11.14;100.00
59757;BME280;45631;51.962;5.974;2023-05-16T07:26:58;101939.47;;;11.32;100.00
59757;BME280;45631;51.962;5.974;2023-05-16T07:29:26;101934.19;;;11.49;100.00
59757;BME280;45631;51.962;5.974;2023-05-16T07:31:56;101944.53;;;11.70;100.00
59757;BME280;45631;51.962;5.974;2023-05-16T07:34:24;101923.38;;;12.05;100.00
59757;BME280;45631;51.962;5.974;2023-05-16T07:36:52;101930.72;;;12.32;100.00
59757;BME280;45631;51.962;5.974;2023-05-16T07:39:20;101925.69;;;12.59;100.00
59757;BME280;45631;51.962;5.974;2023-05-16T07:41:48;101922.81;;;12.64;100.00
59757;BME280;45631;51.962;5.974;2023-05-16T07:44:18;101938.00;;;12.75;100.00
59757;BME280;45631;51.962;5.974;2023-05-16T07:46:46;101933.72;;;12.88;100.00
59757;BME280;45631;51.962;5.974;2023-05-16T07:49:14;101942.25;;;12.93;100.00
59757;BME280;45631;51.962;5.974;2023-05-16T07:51:42;101942.25;;;12.93;100.00
59757;BME280;45631;51.962;5.974;2023-05-16T07:54:11;101936.53;;;13.01;100.00
59757;BME280;45631;51.962;5.974;2023-05-16T07:56:39;101931.22;;;13.31;100.00
59757;BME280;45631;51.962;5.974;2023-05-16T07:59:07;101933.34;;;13.55;100.00
59757;BME280;45631;51.962;5.974;2023-05-16T08:01:37;101933.28;;;13.57;100.00
59757;BME280;45631;51.962;5.974;2023-05-16T08:04:05;101942.34;;;13.81;100.00
59757;BME280;45631;51.962;5.974;2023-05-16T08:06:33;101932.44;;;13.99;100.00
59757;BME280;45631;51.962;5.974;2023-05-16T08:09:02;101933.16;;;14.16;100.00
59757;BME280;45631;51.962;5.974;2023-05-16T08:11:31;101932.81;;;13.79;100.00
59757;BME280;45631;51.962;5.974;2023-05-16T08:13:59;101944.69;;;13.57;100.00
59757;BME280;45631;51.962;5.974;2023-05-16T08:16:31;101942.78;;;13.45;100.00
59757;BME280;45631;51.962;5.974;2023-05-16T08:19:01;101940.69;;;13.35;100.00
59757;BME280;45631;51.962;5.974;2023-05-16T08:21:29;101944.13;;;13.38;100.00
59757;BME280;45631;51.962;5.974;2023-05-16T08:23:57;101948.56;;;13.66;100.00
59757;BME280;45631;51.962;5.974;2023-05-16T08:26:26;101945.16;;;13.78;100.00
59757;BME280;45631;51.962;5.974;2023-05-16T08:28:54;101947.75;;;13.80;100.00
59757;BME280;45631;51.962;5.974;2023-05-16T08:31:22;101943.59;;;13.76;100.00
59757;BME280;45631;51.962;5.974;2023-05-16T08:33:50;101951.44;;;13.77;100.00
59757;BME280;45631;51.962;5.974;2023-05-16T08:36:20;101947.81;;;13.64;100.00
59757;BME280;45631;51.962;5.974;2023-05-16T08:38:51;101956.50;;;13.66;100.00
59757;BME280;45631;51.962;5.974;2023-05-16T08:41:19;101952.16;;;13.50;100.00
59757;BME280;45631;51.962;5.974;2023-05-16T08:43:48;101953.75;;;13.53;100.00
59757;BME280;45631;51.962;5.974;2023-05-16T08:46:20;101951.94;;;13.39;100.00
59757;BME280;45631;51.962;5.974;2023-05-16T08:48:52;101953.56;;;13.42;100.00
59757;BME280;45631;51.962;5.974;2023-05-16T08:51:24;101945.78;;;13.39;100.00
59757;BME280;45631;51.962;5.974;2023-05-16T08:53:56;101939.59;;;13.68;100.00
59757;BME280;45631;51.962;5.974;2023-05-16T08:56:27;101945.75;;;13.98;100.00
59757;BME280;45631;51.962;5.974;2023-05-16T08:58:55;101945.34;;;14.33;99.20
59757;BME280;45631;51.962;5.974;2023-05-16T09:01:23;101935.50;;;14.62;91.53
59757;BME280;45631;51.962;5.974;2023-05-16T09:03:52;101938.31;;;15.01;87.20
59757;BME280;45631;51.962;5.974;2023-05-16T09:06:23;101933.16;;;15.25;77.80
59757;BME280;45631;51.962;5.974;2023-05-16T09:08:52;101928.41;;;15.56;80.72
59757;BME280;45631;51.962;5.974;2023-05-16T09:11:20;101935.94;;;15.75;78.64
59757;BME280;45631;51.962;5.974;2023-05-16T09:13:48;101940.94;;;15.93;86.87
59757;BME280;45631;51.962;5.974;2023-05-16T09:16:20;101941.03;;;16.04;85.17
59757;BME280;45631;51.962;5.974;2023-05-16T09:18:53;101928.50;;;16.06;81.17
59757;BME280;45631;51.962;5.974;2023-05-16T09:21:27;101932.34;;;15.89;77.17
59757;BME280;45631;51.962;5.974;2023-05-16T09:23:55;101933.38;;;15.61;72.05
59757;BME280;45631;51.962;5.974;2023-05-16T09:26:24;101939.97;;;15.55;71.12
59757;BME280;45631;51.962;5.974;2023-05-16T09:28:53;101951.97;;;15.48;75.31
59757;BME280;45631;51.962;5.974;2023-05-16T09:31:22;101956.34;;;15.09;74.19
59757;BME280;45631;51.962;5.974;2023-05-16T09:33:52;101955.41;;;15.10;74.31
59757;BME280;45631;51.962;5.974;2023-05-16T09:36:26;101953.69;;;15.09;73.33
59757;BME280;45631;51.962;5.974;2023-05-16T09:38:54;101955.41;;;15.10;75.65
59757;BME280;45631;51.962;5.974;2023-05-16T09:41:22;101954.16;;;14.88;76.08
59757;BME280;45631;51.962;5.974;2023-05-16T09:43:51;101958.34;;;15.05;77.83
59757;BME280;45631;51.962;5.974;2023-05-16T09:46:24;101957.03;;;15.38;80.60
59757;BME280;45631;51.962;5.974;2023-05-16T09:48:54;101951.44;;;15.68;76.42
59757;BME280;45631;51.962;5.974;2023-05-16T09:51:22;101959.50;;;15.80;78.44
59757;BME280;45631;51.962;5.974;2023-05-16T09:53:52;101950.91;;;15.76;74.61
59757;BME280;45631;51.962;5.974;2023-05-16T09:56:20;101949.19;;;16.14;74.17
59757;BME280;45631;51.962;5.974;2023-05-16T09:58:51;101945.25;;;16.56;72.82
59757;BME280;45631;51.962;5.974;2023-05-16T10:01:19;101940.41;;;16.86;69.21
59757;BME280;45631;51.962;5.974;2023-05-16T10:03:47;101936.91;;;17.10;72.00
59757;BME280;45631;51.962;5.974;2023-05-16T10:06:16;101930.81;;;17.32;67.21
59757;BME280;45631;51.962;5.974;2023-05-16T10:08:45;101935.53;;;17.39;69.66
59757;BME280;45631;51.962;5.974;2023-05-16T10:11:16;101939.13;;;17.27;71.48
59757;BME280;45631;51.962;5.974;2023-05-16T10:13:45;101945.09;;;17.06;67.63
59757;BME280;45631;51.962;5.974;2023-05-16T10:16:20;101951.22;;;16.71;71.48
59757;BME280;45631;51.962;5.974;2023-05-16T10:18:50;101950.69;;;16.42;72.80
59757;BME280;45631;51.962;5.974;2023-05-16T10:21:21;101949.63;;;16.45;73.26
59757;BME280;45631;51.962;5.974;2023-05-16T10:23:56;101957.72;;;16.30;76.39
59757;BME280;45631;51.962;5.974;2023-05-16T10:26:28;101950.88;;;16.52;75.38
59757;BME280;45631;51.962;5.974;2023-05-16T10:28:56;101961.50;;;16.76;76.72
59757;BME280;45631;51.962;5.974;2023-05-16T10:31:25;101943.78;;;17.12;75.92
59757;BME280;45631;51.962;5.974;2023-05-16T10:33:54;101947.25;;;17.01;69.32
59757;BME280;45631;51.962;5.974;2023-05-16T10:36:23;101937.94;;;17.31;73.14
59757;BME280;45631;51.962;5.974;2023-05-16T10:38:52;101940.16;;;17.71;69.80
59757;BME280;45631;51.962;5.974;2023-05-16T10:41:20;101930.72;;;17.79;67.55
59757;BME280;45631;51.962;5.974;2023-05-16T10:43:56;101929.13;;;17.31;65.41
59757;BME280;45631;51.962;5.974;2023-05-16T10:46:26;101937.00;;;17.08;65.38
59757;BME280;45631;51.962;5.974;2023-05-16T10:48:55;101930.72;;;16.98;65.75
59757;BME280;45631;51.962;5.974;2023-05-16T10:51:34;101934.44;;;17.42;68.00
59757;BME280;45631;51.962;5.974;2023-05-16T10:54:07;101932.69;;;17.88;66.42
59757;BME280;45631;51.962;5.974;2023-05-16T10:56:36;101936.03;;;17.90;63.41
59757;BME280;45631;51.962;5.974;2023-05-16T10:59:21;101924.63;;;18.45;65.47
59757;BME280;45631;51.962;5.974;2023-05-16T11:01:51;101936.03;;;18.35;59.92
59757;BME280;45631;51.962;5.974;2023-05-16T11:04:19;101929.16;;;18.10;56.21
59757;BME280;45631;51.962;5.974;2023-05-16T11:06:51;101929.75;;;17.91;54.83
59757;BME280;45631;51.962;5.974;2023-05-16T11:09:22;101926.72;;;17.50;54.40
59757;BME280;45631;51.962;5.974;2023-05-16T11:11:59;101936.25;;;17.30;54.40
59757;BME280;45631;51.962;5.974;2023-05-16T11:14:39;101932.34;;;17.23;55.76
59757;BME280;45631;51.962;5.974;2023-05-16T11:17:10;101933.34;;;17.22;59.32
59757;BME280;45631;51.962;5.974;2023-05-16T11:19:41;101931.22;;;17.72;59.37
59757;BME280;45631;51.962;5.974;2023-05-16T11:22:12;101934.25;;;17.90;60.08
59757;BME280;45631;51.962;5.974;2023-05-16T11:24:51;101930.50;;;18.27;57.91
59757;BME280;45631;51.962;5.974;2023-05-16T11:27:22;101933.28;;;18.58;50.37
59757;BME280;45631;51.962;5.974;2023-05-16T11:29:53;101925.97;;;18.50;48.00
59757;BME280;45631;51.962;5.974;2023-05-16T11:32:22;101906.41;;;18.94;52.66
59757;BME280;45631;51.962;5.974;2023-05-16T11:34:51;101923.13;;;19.38;52.76
59757;BME280;45631;51.962;5.974;2023-05-16T11:37:20;101923.28;;;18.94;47.02
59757;BME280;45631;51.962;5.974;2023-05-16T11:39:48;101932.38;;;18.36;47.91
59757;BME280;45631;51.962;5.974;2023-05-16T11:42:17;101938.19;;;18.41;49.81
59757;BME280;45631;51.962;5.974;2023-05-16T11:44:46;101937.00;;;18.34;51.09
59757;BME280;45631;51.962;5.974;2023-05-16T11:47:16;101938.50;;;18.04;51.46
59757;BME280;45631;51.962;5.974;2023-05-16T11:49:44;101941.84;;;18.29;52.85
59757;BME280;45631;51.962;5.974;2023-05-16T11:52:15;101944.00;;;18.47;52.06
59757;BME280;45631;51.962;5.974;2023-05-16T11:54:44;101944.63;;;18.71;51.55
59757;BME280;45631;51.962;5.974;2023-05-16T11:57:12;101940.47;;;18.79;52.17
59757;BME280;45631;51.962;5.974;2023-05-16T11:59:41;101939.72;;;18.99;50.50
59757;BME280;45631;51.962;5.974;2023-05-16T12:02:09;101935.94;;;19.44;48.67
59757;BME280;45631;51.962;5.974;2023-05-16T12:04:38;101940.34;;;19.55;47.02
59757;BME280;45631;51.962;5.974;2023-05-16T12:07:07;101941.88;;;19.27;48.61
59757;BME280;45631;51.962;5.974;2023-05-16T12:09:35;101949.38;;;18.13;48.84
59757;BME280;45631;51.962;5.974;2023-05-16T12:12:04;101949.06;;;18.61;49.80
59757;BME280;45631;51.962;5.974;2023-05-16T12:14:34;101957.25;;;18.69;49.99
59757;BME280;45631;51.962;5.974;2023-05-16T12:17:03;101960.94;;;18.89;49.56
59757;BME280;45631;51.962;5.974;2023-05-16T12:19:31;101957.06;;;18.50;48.41
59757;BME280;45631;51.962;5.974;2023-05-16T12:22:01;101960.41;;;18.08;49.94
59757;BME280;45631;51.962;5.974;2023-05-16T12:24:29;101956.50;;;17.78;50.49
59757;BME280;45631;51.962;5.974;2023-05-16T12:26:58;101957.97;;;18.05;50.08
59757;BME280;45631;51.962;5.974;2023-05-16T12:29:26;101959.53;;;18.07;51.61
59757;BME280;45631;51.962;5.974;2023-05-16T12:31:54;101963.66;;;18.12;52.17
59757;BME280;45631;51.962;5.974;2023-05-16T12:34:23;101961.97;;;18.11;51.43
59757;BME280;45631;51.962;5.974;2023-05-16T12:36:51;101960.22;;;18.44;50.58
59757;BME280;45631;51.962;5.974;2023-05-16T12:39:21;101961.84;;;18.23;52.21
59757;BME280;45631;51.962;5.974;2023-05-16T12:41:50;101962.78;;;18.34;54.50
59757;BME280;45631;51.962;5.974;2023-05-16T12:44:18;101975.88;;;18.14;52.92
59757;BME280;45631;51.962;5.974;2023-05-16T12:46:49;101969.69;;;18.02;53.49
59757;BME280;45631;51.962;5.974;2023-05-16T12:49:19;101978.88;;;17.87;51.66
59757;BME280;45631;51.962;5.974;2023-05-16T12:51:49;101967.84;;;17.80;53.78
59757;BME280;45631;51.962;5.974;2023-05-16T12:54:18;101969.81;;;17.31;54.93
59757;BME280;45631;51.962;5.974;2023-05-16T12:56:52;101978.47;;;17.11;54.18
59757;BME280;45631;51.962;5.974;2023-05-16T12:59:21;101979.75;;;17.29;56.04